This is the latest recevied weather packets stored in our database for station/object OK1FET-4. If no packets are shown the sender has not sent any weather packets the latest 1 day(s).
| Time | Temp. | Humidity | Pressure | Rain* | Wind** | Luminosity | Snow |
|---|---|---|---|---|---|---|---|
| 1778023628 | 12.22° C | 96% | 1007 hPa | - | - | - | - |
| 1778022427 | 12.78° C | 96% | 1007.2 hPa | - | - | - | - |
| 1778021526 | 12.78° C | 95% | 1007.5 hPa | - | - | - | - |
| 1778021526 | 12.78° C | 95% | 1007.5 hPa | - | - | - | - |
| 1778021526 | 12.78° C | 95% | 1007.5 hPa | - | - | - | - |
| 1778020625 | 12.78° C | 95% | 1007.2 hPa | - | - | - | - |
| 1778020625 | 12.78° C | 95% | 1007.2 hPa | - | - | - | - |
| 1778019724 | 12.78° C | 95% | 1007.4 hPa | - | - | - | - |
| 1778017021 | 12.78° C | 94% | 1007.2 hPa | - | - | - | - |
| 1778017021 | 12.78° C | 94% | 1007.2 hPa | - | - | - | - |
| 1778016420 | 13.33° C | 93% | 1007.2 hPa | - | - | - | - |
| 1778016420 | 13.33° C | 93% | 1007.2 hPa | - | - | - | - |
| 1778015519 | 13.33° C | 93% | 1007.1 hPa | - | - | - | - |
| 1778015519 | 13.33° C | 93% | 1007.1 hPa | - | - | - | - |
| 1778014918 | 13.33° C | 92% | 1006.9 hPa | - | - | - | - |
| 1778014918 | 13.33° C | 92% | 1006.9 hPa | - | - | - | - |
| 1778014017 | 13.33° C | 91% | 1006.5 hPa | - | - | - | - |
| 1778014017 | 13.33° C | 91% | 1006.5 hPa | - | - | - | - |
| 1778013416 | 13.89° C | 89% | 1006.1 hPa | - | - | - | - |
| 1778013416 | 13.89° C | 89% | 1006.1 hPa | - | - | - | - |
| 1778012815 | 15° C | 80% | 1005.7 hPa | - | - | - | - |
| 1778012815 | 15° C | 80% | 1005.7 hPa | - | - | - | - |
| 1778012815 | 15° C | 80% | 1005.7 hPa | - | - | - | - |
| 1778011612 | 17.78° C | 58% | 1005.3 hPa | - | - | - | - |
| 1778010409 | 17.22° C | 61% | 1005.1 hPa | - | - | - | - |
* Rain since midnight (hover to see other rain measurements)
** Current wind speed in m/s (hover to see current wind gust speed)